createdAt,value
2019-04-28T00:01:02.548Z,73.89
2019-04-28T00:03:31.989Z,73.67
2019-04-28T00:06:01.220Z,73.78
2019-04-28T00:08:31.881Z,73.60
2019-04-28T00:11:01.805Z,73.60
2019-04-28T00:13:32.135Z,73.56
2019-04-28T00:16:01.610Z,73.25
2019-04-28T00:18:31.680Z,73.41
2019-04-28T00:21:17.136Z,73.56
2019-04-28T00:23:56.608Z,73.75
2019-04-28T00:26:47.425Z,73.87
2019-04-28T00:29:16.523Z,74.07
2019-04-28T00:31:45.626Z,74.08
2019-04-28T00:34:14.731Z,74.25
2019-04-28T00:36:45.463Z,74.25
2019-04-28T00:39:14.558Z,74.31
2019-04-28T00:41:43.638Z,74.43
2019-04-28T00:44:12.805Z,74.57
2019-04-28T00:46:43.102Z,74.72
2019-04-28T00:49:12.306Z,74.74
2019-04-28T00:51:41.708Z,74.90
2019-04-28T00:54:12.050Z,74.93
2019-04-28T00:56:42.032Z,74.97
2019-04-28T00:59:11.930Z,75.09
2019-04-28T01:01:47.414Z,74.97
2019-04-28T01:04:16.499Z,75.11
2019-04-28T01:06:45.596Z,75.06
2019-04-28T01:09:14.740Z,75.28
2019-04-28T01:11:43.825Z,75.22
2019-04-28T01:14:12.915Z,75.42
2019-04-28T01:16:51.567Z,75.46
2019-04-28T01:19:24.899Z,75.40
2019-04-28T01:22:10.974Z,75.54
2019-04-28T01:24:40.591Z,75.67
2019-04-28T01:27:37.842Z,75.85
2019-04-28T01:30:11.531Z,75.87
2019-04-28T01:32:46.294Z,75.89
2019-04-28T01:35:15.492Z,75.84
2019-04-28T01:37:44.566Z,75.98
2019-04-28T01:40:13.663Z,75.92
2019-04-28T01:42:42.661Z,75.97
2019-04-28T01:45:11.851Z,75.84
2019-04-28T01:47:40.928Z,75.86
2019-04-28T01:50:10.325Z,76.11
2019-04-28T01:52:40.099Z,76.25
2019-04-28T01:55:10.123Z,76.35
2019-04-28T01:57:39.953Z,76.47
2019-04-28T02:00:22.284Z,76.40
2019-04-28T02:02:43.230Z,76.46
2019-04-28T02:05:12.606Z,76.56
2019-04-28T02:07:41.691Z,76.46
2019-04-28T02:10:11.082Z,76.51
2019-04-28T02:12:40.440Z,76.53
2019-04-28T02:15:10.449Z,76.53
2019-04-28T02:17:40.236Z,76.64
2019-04-28T02:20:10.380Z,76.69
2019-04-28T02:22:45.431Z,76.84
2019-04-28T02:25:14.614Z,76.88
2019-04-28T02:27:43.687Z,76.88
2019-04-28T02:30:12.802Z,77.01
2019-04-28T02:32:41.988Z,77.10
2019-04-28T02:35:11.181Z,77.31
2019-04-28T02:37:40.756Z,77.38
2019-04-28T02:40:10.807Z,77.57
2019-04-28T02:42:40.904Z,77.73
2019-04-28T02:45:11.633Z,77.78
2019-04-28T02:47:42.195Z,78.04
2019-04-28T02:50:21.354Z,77.92
2019-04-28T02:53:01.344Z,78.03
2019-04-28T02:55:31.674Z,78.20
2019-04-28T02:58:01.482Z,78.20
2019-04-28T03:00:31.720Z,78.22
2019-04-28T03:03:01.657Z,78.23
2019-04-28T03:05:33.525Z,78.25
2019-04-28T03:08:01.675Z,78.37
2019-04-28T03:10:31.343Z,78.47
2019-04-28T03:13:01.411Z,78.62
2019-04-28T03:15:30.877Z,78.64
2019-04-28T03:18:01.871Z,78.69
2019-04-28T03:20:31.297Z,78.68
2019-04-28T03:23:01.050Z,78.72
2019-04-28T03:25:40.552Z,78.88
2019-04-28T03:28:14.889Z,78.83
2019-04-28T03:30:53.892Z,78.93
2019-04-28T03:33:25.383Z,79.28
2019-04-28T03:35:54.054Z,79.36
2019-04-28T03:38:23.431Z,79.38
2019-04-28T03:40:52.533Z,79.50
2019-04-28T03:43:21.600Z,79.61
2019-04-28T03:45:55.535Z,79.67
2019-04-28T03:48:24.599Z,79.79
2019-04-28T03:50:53.690Z,79.72
2019-04-28T03:53:22.755Z,79.69
2019-04-28T03:55:51.905Z,79.66
2019-04-28T03:58:24.167Z,79.63
2019-04-28T04:00:51.841Z,79.53
2019-04-28T04:03:21.303Z,79.80
2019-04-28T04:05:50.992Z,79.95
2019-04-28T04:08:21.126Z,80.03
2019-04-28T04:11:10.851Z,80.23
2019-04-28T04:13:48.075Z,80.35
2019-04-28T04:16:45.315Z,80.34
2019-04-28T04:19:14.588Z,80.49
2019-04-28T04:21:43.686Z,80.43
2019-04-28T04:24:12.788Z,80.59
2019-04-28T04:26:41.899Z,80.57
2019-04-28T04:29:11.187Z,80.64
2019-04-28T04:31:41.314Z,80.75
2019-04-28T04:34:10.864Z,80.61
2019-04-28T04:36:41.693Z,80.68
2019-04-28T04:39:10.962Z,80.75
2019-04-28T04:41:43.253Z,80.81
2019-04-28T04:44:11.301Z,80.85
2019-04-28T04:46:43.444Z,80.81
2019-04-28T04:49:12.523Z,80.85
2019-04-28T04:51:43.985Z,80.85
2019-04-28T04:54:12.515Z,80.91
2019-04-28T04:56:41.574Z,80.93
2019-04-28T04:59:10.707Z,80.94
2019-04-28T05:02:02.827Z,80.80
2019-04-28T05:04:50.976Z,80.83
2019-04-28T05:07:20.095Z,80.91
2019-04-28T05:09:49.614Z,80.99
2019-04-28T05:12:19.601Z,80.86
2019-04-28T05:14:49.451Z,80.91
2019-04-28T05:17:20.300Z,80.97
2019-04-28T05:19:49.753Z,80.99
2019-04-28T05:22:20.753Z,81.06
2019-04-28T05:25:00.084Z,81.07
2019-04-28T05:27:30.073Z,81.18
2019-04-28T05:30:03.770Z,81.16
2019-04-28T05:32:42.630Z,81.28
2019-04-28T05:35:01.726Z,81.35
2019-04-28T05:37:30.823Z,81.49
2019-04-28T05:40:00.903Z,81.45
2019-04-28T05:42:30.333Z,81.55
2019-04-28T05:45:00.057Z,81.44
2019-04-28T05:47:30.609Z,81.36
2019-04-28T05:50:14.395Z,81.28
2019-04-28T05:53:02.491Z,81.17
2019-04-28T05:55:45.519Z,81.16
2019-04-28T05:58:25.781Z,80.85
2019-04-28T06:01:15.633Z,80.81
2019-04-28T06:03:44.961Z,80.62
2019-04-28T06:06:14.043Z,80.10
2019-04-28T06:09:04.052Z,79.97
2019-04-28T06:11:35.117Z,80.11
2019-04-28T06:14:04.326Z,79.89
2019-04-28T06:16:33.403Z,79.69
2019-04-28T06:19:02.502Z,79.39
2019-04-28T06:21:31.569Z,79.25
2019-04-28T06:24:00.672Z,78.95
2019-04-28T06:26:29.925Z,79.03
2019-04-28T06:28:59.005Z,79.01
2019-04-28T06:31:28.109Z,79.01
2019-04-28T06:33:57.231Z,78.87
2019-04-28T06:36:26.301Z,78.84
2019-04-28T06:38:55.358Z,78.79
2019-04-28T06:41:24.523Z,78.82
2019-04-28T06:43:54.156Z,78.78
2019-04-28T06:46:23.250Z,78.70
2019-04-28T06:48:52.376Z,78.78
2019-04-28T06:51:21.540Z,78.69
2019-04-28T06:53:50.644Z,78.76
2019-04-28T06:56:19.800Z,78.68
2019-04-28T06:58:58.902Z,78.30
2019-04-28T07:01:19.818Z,77.76
2019-04-28T07:03:48.999Z,77.23
2019-04-28T07:06:18.142Z,76.89
2019-04-28T07:08:47.253Z,76.63
2019-04-28T07:11:16.397Z,76.33
2019-04-28T07:13:45.510Z,75.87
2019-04-28T07:16:14.618Z,75.83
2019-04-28T07:18:46.857Z,75.91
2019-04-28T07:21:22.297Z,75.97
2019-04-28T07:23:51.421Z,76.17
2019-04-28T07:26:20.525Z,76.34
2019-04-28T07:28:52.612Z,76.50
2019-04-28T07:31:23.519Z,76.70
2019-04-28T07:33:52.735Z,76.80
2019-04-28T07:36:21.824Z,76.99
2019-04-28T07:38:50.917Z,77.28
2019-04-28T07:41:20.033Z,77.51
2019-04-28T07:43:49.111Z,77.53
2019-04-28T07:46:18.207Z,77.57
2019-04-28T07:48:47.270Z,77.90
2019-04-28T07:51:16.447Z,77.79
2019-04-28T07:53:52.668Z,77.84
2019-04-28T07:56:21.796Z,77.71
2019-04-28T07:58:50.862Z,77.46
2019-04-28T08:01:19.984Z,77.26
2019-04-28T08:03:49.991Z,77.31
2019-04-28T08:06:19.342Z,77.33
2019-04-28T08:08:48.425Z,76.94
2019-04-28T08:11:17.544Z,76.52
2019-04-28T08:13:46.758Z,76.34
2019-04-28T08:16:15.954Z,76.12
2019-04-28T08:18:45.070Z,76.01
2019-04-28T08:21:14.182Z,76.02
2019-04-28T08:23:47.403Z,76.01
2019-04-28T08:26:14.122Z,75.73
2019-04-28T08:28:43.231Z,75.57
2019-04-28T08:31:14.022Z,75.37
2019-04-28T08:34:01.364Z,74.91
2019-04-28T08:36:20.166Z,75.02
2019-04-28T08:38:49.260Z,74.80
2019-04-28T08:41:18.384Z,74.71
2019-04-28T08:43:47.506Z,74.52
2019-04-28T08:46:16.678Z,74.04
2019-04-28T08:48:45.751Z,73.78
2019-04-28T08:51:14.902Z,73.60
2019-04-28T08:53:43.979Z,73.57
2019-04-28T08:56:13.108Z,73.48
2019-04-28T08:58:42.201Z,73.59
2019-04-28T09:01:11.319Z,72.92
2019-04-28T09:03:40.404Z,72.74
2019-04-28T09:06:09.510Z,72.49
2019-04-28T09:08:38.585Z,71.88
2019-04-28T09:11:07.681Z,71.37
2019-04-28T09:13:37.834Z,71.30
2019-04-28T09:16:06.927Z,71.18
2019-04-28T09:18:36.015Z,70.89
2019-04-28T09:21:05.115Z,71.26
2019-04-28T09:23:34.232Z,70.69
2019-04-28T09:26:03.327Z,70.10
2019-04-28T09:28:32.405Z,69.71
2019-04-28T09:31:01.609Z,69.14
2019-04-28T09:33:30.689Z,69.06
2019-04-28T09:35:59.717Z,68.52
2019-04-28T09:38:28.790Z,67.24
2019-04-28T09:40:57.894Z,66.73
2019-04-28T09:43:45.962Z,66.39
2019-04-28T09:46:24.402Z,66.22
2019-04-28T09:48:53.663Z,66.49
2019-04-28T09:51:22.773Z,65.78
2019-04-28T09:53:51.866Z,65.39
2019-04-28T09:56:20.977Z,65.05
2019-04-28T09:58:50.087Z,64.26
2019-04-28T10:01:19.681Z,64.61
2019-04-28T10:03:48.792Z,64.61
2019-04-28T10:06:17.888Z,64.41
2019-04-28T10:08:46.996Z,65.35
2019-04-28T10:11:16.068Z,66.30
2019-04-28T10:13:49.919Z,66.71
2019-04-28T10:16:19.000Z,65.85
2019-04-28T10:18:48.102Z,64.29
2019-04-28T10:21:17.178Z,63.52
2019-04-28T10:23:46.294Z,62.80
2019-04-28T10:26:15.380Z,62.10
2019-04-28T10:28:44.474Z,61.70
2019-04-28T10:31:13.683Z,61.09
2019-04-28T10:33:44.924Z,60.79
2019-04-28T10:36:15.660Z,60.36
2019-04-28T10:38:46.503Z,60.61
2019-04-28T10:41:22.563Z,60.86
2019-04-28T10:43:51.675Z,61.58
2019-04-28T10:46:20.748Z,61.50
2019-04-28T10:48:49.939Z,61.66
2019-04-28T10:51:19.139Z,61.02
2019-04-28T10:53:48.179Z,60.14
2019-04-28T10:56:17.255Z,61.23
2019-04-28T10:58:47.914Z,61.54
2019-04-28T11:01:16.996Z,61.21
2019-04-28T11:03:47.738Z,61.46
2019-04-28T11:06:16.805Z,60.79
2019-04-28T11:08:56.331Z,60.54
2019-04-28T11:11:27.342Z,59.88
2019-04-28T11:13:56.625Z,59.40
2019-04-28T11:16:30.677Z,58.17
2019-04-28T11:18:59.778Z,58.31
2019-04-28T11:21:28.843Z,58.12
2019-04-28T11:23:57.927Z,58.31
2019-04-28T11:26:26.991Z,56.33
2019-04-28T11:28:56.366Z,55.75
2019-04-28T11:31:25.448Z,52.85
2019-04-28T11:34:12.369Z,53.68
2019-04-28T11:36:41.556Z,52.88
2019-04-28T11:39:13.135Z,51.83
2019-04-28T11:41:42.178Z,51.72
2019-04-28T11:44:11.548Z,51.47
2019-04-28T11:46:40.544Z,51.58
2019-04-28T11:49:09.626Z,50.92
2019-04-28T11:51:38.696Z,50.77
2019-04-28T11:54:07.785Z,50.70
2019-04-28T11:56:41.467Z,50.21
2019-04-28T11:59:07.661Z,49.63
2019-04-28T12:01:36.729Z,48.58
2019-04-28T12:04:07.492Z,48.45
2019-04-28T12:06:36.487Z,48.78
2019-04-28T12:09:27.252Z,48.93
2019-04-28T12:11:56.766Z,48.76
2019-04-28T12:14:33.904Z,48.40
2019-04-28T12:17:35.198Z,47.59
2019-04-28T12:20:10.383Z,47.60
2019-04-28T12:22:39.436Z,48.28
2019-04-28T12:25:08.534Z,47.53
2019-04-28T12:27:37.602Z,46.89
2019-04-28T12:30:07.168Z,47.12
2019-04-28T12:32:36.227Z,47.00
2019-04-28T12:35:05.827Z,44.13
2019-04-28T12:37:34.911Z,43.94
2019-04-28T12:40:04.272Z,44.07
2019-04-28T12:42:33.331Z,44.59
2019-04-28T12:45:02.438Z,43.44
2019-04-28T12:47:31.503Z,41.90
2019-04-28T12:50:06.644Z,41.99
2019-04-28T12:52:35.714Z,42.16
2019-04-28T12:55:05.327Z,41.50
2019-04-28T12:57:34.385Z,42.16
2019-04-28T13:00:18.908Z,41.83
2019-04-28T13:03:05.714Z,41.56
2019-04-28T13:05:36.683Z,41.95
2019-04-28T13:08:05.758Z,40.90
2019-04-28T13:10:34.845Z,40.65
2019-04-28T13:13:03.902Z,40.64
2019-04-28T13:15:33.007Z,40.59
2019-04-28T13:18:02.065Z,41.36
2019-04-28T13:20:31.125Z,40.83
2019-04-28T13:23:00.138Z,40.61
2019-04-28T13:25:29.210Z,41.37
2019-04-28T13:27:58.311Z,41.74
2019-04-28T13:30:27.429Z,42.30
2019-04-28T13:32:56.485Z,42.56
2019-04-28T13:35:25.639Z,42.84
2019-04-28T13:37:54.712Z,43.32
2019-04-28T13:40:28.222Z,43.92
2019-04-28T13:42:57.285Z,44.44
2019-04-28T13:45:26.657Z,43.88
2019-04-28T13:47:55.681Z,43.63
2019-04-28T13:50:31.959Z,43.61
2019-04-28T13:53:01.071Z,43.48
2019-04-28T13:55:41.811Z,43.58
2019-04-28T13:58:10.879Z,44.01
2019-04-28T14:00:51.763Z,44.40
2019-04-28T14:03:39.870Z,44.77
2019-04-28T14:06:11.616Z,45.25
2019-04-28T14:08:40.709Z,45.49
2019-04-28T14:11:09.777Z,45.88
2019-04-28T14:13:38.864Z,46.60
2019-04-28T14:16:08.020Z,47.01
2019-04-28T14:18:37.062Z,46.58
2019-04-28T14:21:07.910Z,47.20
2019-04-28T14:23:37.004Z,46.76
2019-04-28T14:26:06.085Z,46.35
2019-04-28T14:28:35.222Z,45.63
2019-04-28T14:31:04.274Z,44.61
2019-04-28T14:33:33.581Z,44.77
2019-04-28T14:36:02.742Z,45.00
2019-04-28T14:38:31.829Z,44.81
2019-04-28T14:41:00.966Z,44.64
2019-04-28T14:43:30.055Z,43.71
2019-04-28T14:45:59.147Z,43.52
2019-04-28T14:48:28.208Z,43.38
2019-04-28T14:50:57.258Z,43.48
2019-04-28T14:53:26.358Z,42.89
2019-04-28T14:55:55.412Z,42.56
2019-04-28T14:58:24.503Z,42.19
2019-04-28T15:00:58.312Z,41.81
2019-04-28T15:03:29.064Z,41.40
2019-04-28T15:06:22.989Z,40.86
2019-04-28T15:09:09.716Z,41.11
2019-04-28T15:11:42.965Z,40.51
2019-04-28T15:14:12.054Z,39.96
2019-04-28T15:16:41.207Z,39.98
2019-04-28T15:19:10.338Z,40.39
2019-04-28T15:21:39.315Z,40.59
2019-04-28T15:24:08.460Z,40.99
2019-04-28T15:26:37.528Z,41.30
2019-04-28T15:29:06.779Z,41.25
2019-04-28T15:31:35.877Z,41.31
2019-04-28T15:34:05.170Z,41.06
2019-04-28T15:36:34.234Z,41.14
2019-04-28T15:39:03.830Z,41.59
2019-04-28T15:41:32.831Z,42.28
2019-04-28T15:44:01.971Z,42.58
2019-04-28T15:46:31.032Z,43.23
2019-04-28T15:49:00.022Z,43.37
2019-04-28T15:51:29.111Z,43.14
2019-04-28T15:53:58.172Z,43.02
2019-04-28T15:56:35.697Z,42.96
2019-04-28T15:59:05.883Z,42.95
2019-04-28T16:01:34.959Z,43.15
2019-04-28T16:04:04.085Z,43.61
2019-04-28T16:06:33.252Z,44.12
2019-04-28T16:09:02.245Z,43.84
2019-04-28T16:11:40.188Z,43.80
2019-04-28T16:14:09.258Z,43.21
2019-04-28T16:16:38.406Z,43.04
2019-04-28T16:19:07.675Z,43.18
2019-04-28T16:21:36.790Z,43.26
2019-04-28T16:24:06.382Z,43.42
2019-04-28T16:26:35.493Z,43.52
2019-04-28T16:29:05.057Z,43.60
2019-04-28T16:31:34.166Z,43.62
2019-04-28T16:34:03.253Z,44.13
2019-04-28T16:36:32.377Z,44.33
2019-04-28T16:39:01.410Z,44.41
2019-04-28T16:41:30.500Z,44.59
2019-04-28T16:43:59.585Z,44.78
2019-04-28T16:46:28.670Z,45.12
2019-04-28T16:48:57.735Z,45.51
2019-04-28T16:51:26.823Z,45.92
2019-04-28T16:53:55.887Z,45.92
2019-04-28T16:56:43.976Z,45.92
2019-04-28T16:59:25.274Z,46.17
2019-04-28T17:02:01.084Z,46.46
2019-04-28T17:04:30.079Z,46.70
2019-04-28T17:06:59.169Z,46.68
2019-04-28T17:09:28.238Z,47.04
2019-04-28T17:11:57.330Z,47.11
2019-04-28T17:14:26.401Z,47.07
2019-04-28T17:16:55.514Z,47.39
2019-04-28T17:19:24.576Z,47.99
2019-04-28T17:21:53.673Z,48.40
2019-04-28T17:24:22.785Z,48.21
2019-04-28T17:26:51.870Z,48.15
2019-04-28T17:29:20.929Z,48.36
2019-04-28T17:31:50.035Z,48.69
2019-04-28T17:34:19.101Z,48.55
2019-04-28T17:36:48.222Z,48.71
2019-04-28T17:39:20.167Z,49.04
2019-04-28T17:41:49.465Z,49.36
2019-04-28T17:44:18.592Z,49.38
2019-04-28T17:46:47.687Z,49.47
2019-04-28T17:49:16.745Z,49.89
2019-04-28T17:51:45.818Z,50.31
2019-04-28T17:54:14.906Z,50.47
2019-04-28T17:56:43.980Z,50.56
2019-04-28T17:59:13.078Z,50.54
2019-04-28T18:02:00.124Z,50.90
2019-04-28T18:04:39.926Z,51.25
2019-04-28T18:07:13.697Z,51.08
2019-04-28T18:09:42.763Z,51.14
2019-04-28T18:12:11.979Z,51.36
2019-04-28T18:14:42.726Z,51.48
2019-04-28T18:17:29.771Z,51.70
2019-04-28T18:19:58.892Z,51.95
2019-04-28T18:22:27.995Z,51.95
2019-04-28T18:24:57.054Z,51.91
2019-04-28T18:27:26.151Z,51.96
2019-04-28T18:29:55.228Z,52.39
2019-04-28T18:32:43.255Z,52.50
2019-04-28T18:35:22.772Z,52.70
2019-04-28T18:37:59.645Z,52.58
2019-04-28T18:40:53.967Z,52.68
2019-04-28T18:43:42.051Z,53.03
2019-04-28T18:46:11.135Z,53.20
2019-04-28T18:48:40.228Z,53.27
2019-04-28T18:51:09.299Z,53.73
2019-04-28T18:53:38.401Z,53.90
2019-04-28T18:56:07.467Z,54.20
2019-04-28T18:58:36.550Z,54.27
2019-04-28T19:01:24.413Z,54.50
2019-04-28T19:03:53.516Z,54.66
2019-04-28T19:06:22.509Z,54.98
2019-04-28T19:08:56.579Z,55.65
2019-04-28T19:11:43.226Z,55.79
2019-04-28T19:14:17.984Z,56.26
2019-04-28T19:16:58.754Z,56.36
2019-04-28T19:19:28.954Z,56.61
2019-04-28T19:21:58.027Z,56.75
2019-04-28T19:24:27.649Z,57.15
2019-04-28T19:26:56.714Z,57.28
2019-04-28T19:29:25.810Z,57.57
2019-04-28T19:31:54.897Z,57.70
2019-04-28T19:34:23.990Z,57.91
2019-04-28T19:36:52.986Z,58.12
2019-04-28T19:39:22.082Z,58.19
2019-04-28T19:41:51.145Z,58.26
2019-04-28T19:44:20.225Z,58.42
2019-04-28T19:46:49.286Z,58.40
2019-04-28T19:49:18.377Z,58.66
2019-04-28T19:51:47.455Z,58.91
2019-04-28T19:54:18.501Z,58.95
2019-04-28T19:57:11.186Z,59.21
2019-04-28T20:00:17.714Z,59.18
2019-04-28T20:02:46.820Z,59.34
2019-04-28T20:05:15.934Z,59.57
2019-04-28T20:07:45.007Z,59.94
2019-04-28T20:10:14.505Z,60.12
2019-04-28T20:12:43.579Z,60.30
2019-04-28T20:15:12.673Z,60.57
2019-04-28T20:17:41.731Z,60.80
2019-04-28T20:20:11.009Z,60.96
2019-04-28T20:22:40.093Z,61.08
2019-04-28T20:25:09.284Z,61.14
2019-04-28T20:27:38.363Z,61.18
2019-04-28T20:30:07.682Z,61.29
2019-04-28T20:32:44.687Z,61.45
2019-04-28T20:35:16.862Z,61.56
2019-04-28T20:38:06.793Z,61.79
2019-04-28T20:40:46.666Z,61.98
2019-04-28T20:43:17.872Z,61.85
2019-04-28T20:45:46.884Z,61.86
2019-04-28T20:48:15.973Z,62.05
2019-04-28T20:50:45.055Z,62.31
2019-04-28T20:53:14.123Z,62.36
2019-04-28T20:55:43.140Z,62.57
2019-04-28T20:58:12.215Z,62.81
2019-04-28T21:00:41.378Z,63.18
2019-04-28T21:03:10.461Z,63.40
2019-04-28T21:05:39.547Z,63.59
2019-04-28T21:08:08.626Z,63.70
2019-04-28T21:10:38.631Z,63.74
2019-04-28T21:13:07.767Z,63.82
2019-04-28T21:15:36.855Z,63.90
2019-04-28T21:18:05.919Z,63.92
2019-04-28T21:20:35.009Z,63.95
2019-04-28T21:23:04.072Z,64.07
2019-04-28T21:25:33.161Z,64.15
2019-04-28T21:28:02.240Z,64.15
2019-04-28T21:30:31.322Z,64.28
2019-04-28T21:33:00.424Z,64.46
2019-04-28T21:35:29.651Z,64.56
2019-04-28T21:37:58.745Z,64.59
2019-04-28T21:40:28.291Z,64.71
2019-04-28T21:43:03.170Z,64.64
2019-04-28T21:45:50.629Z,64.63
2019-04-28T21:48:38.378Z,64.73
2019-04-28T21:51:07.473Z,64.75
2019-04-28T21:53:36.555Z,64.82
2019-04-28T21:56:05.766Z,64.81
2019-04-28T21:58:34.868Z,64.82
2019-04-28T22:01:04.123Z,64.97
2019-04-28T22:03:33.138Z,64.99
2019-04-28T22:06:02.208Z,65.10
2019-04-28T22:08:31.287Z,65.14
2019-04-28T22:11:00.359Z,65.22
2019-04-28T22:13:29.446Z,65.36
2019-04-28T22:15:58.446Z,65.43
2019-04-28T22:18:27.548Z,65.41
2019-04-28T22:20:56.624Z,65.45
2019-04-28T22:23:34.979Z,65.47
2019-04-28T22:26:04.067Z,65.52
2019-04-28T22:28:33.168Z,65.56
2019-04-28T22:31:02.250Z,65.77
2019-04-28T22:33:31.341Z,65.93
2019-04-28T22:36:00.406Z,66.02
2019-04-28T22:38:29.498Z,66.20
2019-04-28T22:40:58.485Z,66.36
2019-04-28T22:43:27.570Z,66.30
2019-04-28T22:45:56.635Z,66.38
2019-04-28T22:48:26.507Z,66.36
2019-04-28T22:50:55.668Z,66.45
2019-04-28T22:53:31.303Z,66.49
2019-04-28T22:56:22.191Z,66.47
2019-04-28T22:58:55.239Z,66.49
2019-04-28T23:01:44.738Z,66.66
2019-04-28T23:04:30.268Z,66.74
2019-04-28T23:06:59.327Z,66.78
2019-04-28T23:09:28.431Z,66.87
2019-04-28T23:11:57.517Z,66.94
2019-04-28T23:14:26.643Z,67.09
2019-04-28T23:16:55.722Z,67.14
2019-04-28T23:19:27.085Z,67.21
2019-04-28T23:22:05.565Z,67.42
2019-04-28T23:24:34.652Z,67.51
2019-04-28T23:27:03.832Z,67.56
2019-04-28T23:29:32.919Z,67.72
2019-04-28T23:32:02.007Z,67.73
2019-04-28T23:34:31.086Z,67.87
2019-04-28T23:37:00.141Z,67.88
2019-04-28T23:39:29.227Z,68.12
2019-04-28T23:42:09.301Z,68.22
2019-04-28T23:44:38.302Z,68.37
2019-04-28T23:47:07.467Z,68.53
2019-04-28T23:49:36.544Z,68.65
2019-04-28T23:52:18.574Z,68.60
2019-04-28T23:54:49.632Z,68.78
2019-04-28T23:57:18.612Z,68.77
2019-04-28T23:59:47.706Z,68.92
